createdAt,value
2017-10-16T00:00:37.251Z,6.20
2017-10-16T00:03:05.550Z,6.00
2017-10-16T00:05:33.852Z,6.97
2017-10-16T00:08:02.737Z,7.70
2017-10-16T00:10:31.311Z,5.90
2017-10-16T00:12:59.652Z,6.80
2017-10-16T00:15:28.738Z,6.10
2017-10-16T00:17:57.193Z,6.33
2017-10-16T00:20:25.567Z,7.30
2017-10-16T00:22:53.989Z,6.50
2017-10-16T00:25:22.307Z,6.40
2017-10-16T00:27:50.600Z,6.80
2017-10-16T00:30:18.918Z,6.43
2017-10-16T00:32:47.211Z,6.07
2017-10-16T00:35:15.960Z,6.60
2017-10-16T00:37:44.278Z,7.93
2017-10-16T00:40:12.536Z,6.60
2017-10-16T00:42:41.546Z,7.27
2017-10-16T00:45:09.975Z,7.10
2017-10-16T00:47:38.798Z,7.77
2017-10-16T00:50:07.893Z,6.90
2017-10-16T00:52:36.611Z,7.70
2017-10-16T00:55:04.953Z,7.00
2017-10-16T00:57:34.072Z,7.10
2017-10-16T01:00:02.456Z,7.10
2017-10-16T01:02:30.803Z,7.60
2017-10-16T01:04:59.971Z,7.43
2017-10-16T01:07:28.298Z,7.30
2017-10-16T01:09:57.091Z,7.80
2017-10-16T01:12:25.688Z,6.97
2017-10-16T01:14:53.937Z,8.37
2017-10-16T01:17:22.483Z,7.70
2017-10-16T01:19:50.853Z,7.43
2017-10-16T01:22:19.217Z,7.63
2017-10-16T01:24:47.636Z,7.50
2017-10-16T01:27:16.332Z,8.57
2017-10-16T01:29:44.762Z,8.10
2017-10-16T01:32:13.214Z,7.80
2017-10-16T01:34:42.103Z,9.47
2017-10-16T01:37:10.474Z,8.03
2017-10-16T01:39:39.575Z,8.80
2017-10-16T01:42:09.033Z,8.80
2017-10-16T01:44:37.492Z,9.23
2017-10-16T01:47:05.891Z,9.60
2017-10-16T01:49:34.290Z,8.90
2017-10-16T01:52:03.035Z,8.40
2017-10-16T01:54:31.418Z,9.30
2017-10-16T01:56:59.791Z,8.73
2017-10-16T01:59:28.374Z,8.43
2017-10-16T02:01:56.860Z,9.00
2017-10-16T02:04:25.491Z,10.40
2017-10-16T02:06:53.791Z,8.83
2017-10-16T02:09:22.099Z,9.10
2017-10-16T02:11:50.802Z,8.77
2017-10-16T02:14:19.285Z,10.00
2017-10-16T02:16:48.347Z,9.40
2017-10-16T02:19:16.688Z,10.30
2017-10-16T02:21:45.051Z,10.53
2017-10-16T02:24:13.419Z,10.37
2017-10-16T02:26:41.707Z,9.60
2017-10-16T02:29:09.970Z,11.27
2017-10-16T02:31:38.278Z,10.23
2017-10-16T02:34:06.556Z,9.30
2017-10-16T02:36:36.048Z,10.07
2017-10-16T02:39:05.410Z,10.30
2017-10-16T02:41:34.130Z,10.20
2017-10-16T02:44:02.443Z,11.27
2017-10-16T02:46:30.732Z,10.93
2017-10-16T02:48:59.019Z,11.53
2017-10-16T02:51:27.334Z,11.37
2017-10-16T02:53:55.660Z,11.57
2017-10-16T02:56:25.147Z,11.40
2017-10-16T02:58:53.435Z,11.17
2017-10-16T03:01:22.903Z,11.70
2017-10-16T03:03:51.175Z,11.97
2017-10-16T03:06:19.466Z,11.37
2017-10-16T03:08:48.206Z,13.87
2017-10-16T03:11:16.547Z,11.67
2017-10-16T03:13:44.888Z,10.70
2017-10-16T03:16:13.230Z,11.60
2017-10-16T03:18:41.511Z,11.10
2017-10-16T03:21:09.783Z,11.83
2017-10-16T03:23:38.043Z,12.43
2017-10-16T03:26:07.499Z,11.97
2017-10-16T03:28:35.772Z,11.07
2017-10-16T03:31:04.052Z,12.80
2017-10-16T03:33:32.346Z,12.00
2017-10-16T03:36:00.619Z,12.33
2017-10-16T03:38:28.955Z,12.60
2017-10-16T03:40:57.231Z,11.80
2017-10-16T03:43:25.507Z,12.63
2017-10-16T03:45:54.103Z,12.67
2017-10-16T03:48:22.410Z,13.70
2017-10-16T03:50:50.735Z,11.80
2017-10-16T03:53:19.767Z,12.63
2017-10-16T03:55:48.138Z,12.90
2017-10-16T03:58:16.488Z,13.10
2017-10-16T04:00:45.352Z,11.83
2017-10-16T04:03:13.662Z,11.70
2017-10-16T04:05:41.935Z,14.63
2017-10-16T04:08:10.279Z,13.17
2017-10-16T04:10:38.606Z,13.10
2017-10-16T04:13:07.108Z,13.33
2017-10-16T04:15:35.393Z,13.50
2017-10-16T04:18:03.685Z,14.87
2017-10-16T04:20:31.949Z,13.10
2017-10-16T04:23:00.210Z,13.63
2017-10-16T04:25:28.777Z,14.50
2017-10-16T04:27:57.467Z,13.17
2017-10-16T04:30:26.071Z,13.73
2017-10-16T04:32:54.372Z,13.50
2017-10-16T04:35:22.871Z,14.70
2017-10-16T04:37:51.161Z,13.37
2017-10-16T04:40:20.190Z,13.43
2017-10-16T04:42:48.502Z,12.50
2017-10-16T04:45:16.807Z,14.53
2017-10-16T04:47:45.665Z,14.63
2017-10-16T04:50:13.939Z,13.47
2017-10-16T04:52:42.226Z,13.47
2017-10-16T04:55:10.527Z,14.77
2017-10-16T04:57:38.936Z,12.83
2017-10-16T05:00:07.658Z,13.47
2017-10-16T05:02:35.951Z,13.77
2017-10-16T05:05:04.251Z,13.97
2017-10-16T05:07:32.523Z,15.20
2017-10-16T05:10:01.157Z,13.70
2017-10-16T05:12:29.450Z,13.33
2017-10-16T05:14:57.727Z,15.23
2017-10-16T05:17:26.412Z,15.40
2017-10-16T05:19:54.898Z,14.57
2017-10-16T05:22:23.559Z,13.60
2017-10-16T05:24:51.844Z,15.10
2017-10-16T05:27:20.339Z,14.80
2017-10-16T05:29:48.597Z,14.50
2017-10-16T05:32:16.898Z,15.53
2017-10-16T05:34:45.191Z,15.20
2017-10-16T05:37:13.482Z,16.57
2017-10-16T05:39:41.831Z,15.87
2017-10-16T05:42:10.148Z,15.70
2017-10-16T05:44:38.939Z,17.10
2017-10-16T05:47:08.066Z,14.60
2017-10-16T05:49:36.391Z,16.80
2017-10-16T05:52:04.747Z,16.47
2017-10-16T05:54:33.193Z,16.10
2017-10-16T05:57:01.881Z,16.67
2017-10-16T05:59:30.315Z,16.30
2017-10-16T06:01:58.632Z,15.33
2017-10-16T06:04:26.947Z,14.80
2017-10-16T06:06:55.706Z,16.90
2017-10-16T06:09:24.319Z,16.47
2017-10-16T06:11:52.868Z,15.63
2017-10-16T06:14:21.202Z,17.00
2017-10-16T06:16:50.438Z,15.13
2017-10-16T06:19:19.322Z,15.00
2017-10-16T06:21:48.237Z,14.60
2017-10-16T06:24:16.378Z,16.70
2017-10-16T06:26:44.510Z,16.00
2017-10-16T06:29:12.673Z,14.77
2017-10-16T06:31:40.845Z,16.53
2017-10-16T06:34:09.002Z,17.30
2017-10-16T06:36:37.146Z,17.10
2017-10-16T06:39:05.294Z,13.57
2017-10-16T06:41:33.594Z,14.87
2017-10-16T06:44:01.735Z,14.70
2017-10-16T06:46:29.914Z,14.87
2017-10-16T06:48:58.066Z,16.67
2017-10-16T06:51:26.220Z,16.57
2017-10-16T06:53:54.386Z,14.40
2017-10-16T06:56:23.305Z,15.83
2017-10-16T06:58:51.498Z,14.67
2017-10-16T07:01:19.766Z,15.57
2017-10-16T07:03:47.949Z,14.30
2017-10-16T07:06:16.078Z,14.97
2017-10-16T07:08:44.219Z,13.60
2017-10-16T07:11:12.345Z,15.50
2017-10-16T07:13:40.518Z,14.30
2017-10-16T07:16:08.714Z,14.87
2017-10-16T07:18:36.910Z,14.80
2017-10-16T07:21:05.046Z,16.63
2017-10-16T07:23:33.364Z,12.97
2017-10-16T07:26:02.971Z,14.50
2017-10-16T07:28:31.222Z,15.67
2017-10-16T07:30:59.339Z,13.67
2017-10-16T07:33:27.487Z,16.00
2017-10-16T07:35:55.634Z,13.50
2017-10-16T07:38:23.770Z,14.80
2017-10-16T07:40:52.649Z,13.60
2017-10-16T07:43:21.519Z,13.53
2017-10-16T07:45:49.630Z,14.20
2017-10-16T07:48:18.441Z,13.80
2017-10-16T07:50:46.523Z,14.57
2017-10-16T07:53:14.611Z,15.17
2017-10-16T07:55:43.004Z,13.70
2017-10-16T07:58:11.089Z,14.60
2017-10-16T08:00:39.194Z,14.73
2017-10-16T08:03:07.286Z,15.70
2017-10-16T08:05:36.045Z,14.33
2017-10-16T08:08:04.874Z,13.80
2017-10-16T08:10:32.978Z,15.73
2017-10-16T08:13:01.117Z,12.90
2017-10-16T08:15:29.570Z,13.97
2017-10-16T08:17:57.637Z,11.77
2017-10-16T08:20:25.755Z,12.20
2017-10-16T08:22:53.918Z,13.87
2017-10-16T08:25:22.138Z,13.73
2017-10-16T08:27:51.832Z,13.80
2017-10-16T08:30:20.009Z,12.53
2017-10-16T08:32:48.180Z,12.40
2017-10-16T08:35:16.370Z,12.00
2017-10-16T08:37:44.529Z,13.37
2017-10-16T08:40:12.704Z,12.50
2017-10-16T08:42:41.156Z,10.27
2017-10-16T08:45:09.316Z,12.73
2017-10-16T08:47:37.515Z,13.00
2017-10-16T08:50:05.681Z,12.40
2017-10-16T08:52:33.857Z,11.67
2017-10-16T08:55:02.035Z,12.47
2017-10-16T08:57:30.186Z,10.97
2017-10-16T08:59:58.417Z,12.73
2017-10-16T09:02:26.641Z,10.37
2017-10-16T09:04:54.810Z,10.93
2017-10-16T09:07:22.966Z,12.00
2017-10-16T09:09:51.178Z,13.03
2017-10-16T09:12:19.491Z,11.60
2017-10-16T09:14:47.654Z,11.60
2017-10-16T09:17:16.019Z,12.17
2017-10-16T09:19:44.914Z,11.83
2017-10-16T09:22:13.078Z,11.87
2017-10-16T09:24:41.243Z,10.93
2017-10-16T09:27:09.411Z,10.83
2017-10-16T09:29:37.586Z,11.33
2017-10-16T09:32:05.973Z,12.10
2017-10-16T09:34:34.260Z,11.03
2017-10-16T09:37:02.394Z,12.23
2017-10-16T09:39:30.545Z,11.37
2017-10-16T09:41:58.717Z,11.10
2017-10-16T09:44:27.586Z,10.70
2017-10-16T09:46:55.770Z,11.10
2017-10-16T09:49:23.922Z,10.57
2017-10-16T09:51:52.046Z,10.63
2017-10-16T09:54:20.922Z,10.97
2017-10-16T09:56:49.844Z,11.30
2017-10-16T09:59:18.019Z,9.93
2017-10-16T10:01:46.614Z,11.00
2017-10-16T10:04:14.838Z,10.00
2017-10-16T10:06:43.078Z,11.70
2017-10-16T10:09:11.258Z,10.87
2017-10-16T10:11:39.515Z,12.40
2017-10-16T10:14:07.662Z,10.63
2017-10-16T10:16:35.913Z,11.23
2017-10-16T10:19:04.027Z,9.93
2017-10-16T10:21:32.157Z,10.80
2017-10-16T10:24:00.292Z,10.20
2017-10-16T10:26:28.389Z,11.50
2017-10-16T10:28:56.478Z,9.50
2017-10-16T10:31:24.558Z,10.80
2017-10-16T10:33:52.683Z,10.60
2017-10-16T10:36:20.755Z,11.80
2017-10-16T10:38:48.844Z,10.50
2017-10-16T10:41:23.965Z,10.33
2017-10-16T10:43:52.038Z,10.53
2017-10-16T10:46:20.150Z,10.50
2017-10-16T10:48:48.243Z,11.70
2017-10-16T10:51:16.326Z,11.13
2017-10-16T10:53:44.542Z,12.20
2017-10-16T10:56:13.238Z,11.13
2017-10-16T10:58:41.600Z,9.80
2017-10-16T11:01:09.806Z,10.53
2017-10-16T11:03:37.923Z,10.70
2017-10-16T11:06:06.079Z,9.30
2017-10-16T11:08:34.924Z,10.00
2017-10-16T11:11:03.041Z,9.63
2017-10-16T11:13:31.914Z,11.27
2017-10-16T11:16:00.068Z,11.10
2017-10-16T11:18:28.217Z,10.37
2017-10-16T11:20:56.422Z,9.20
2017-10-16T11:23:25.344Z,10.47
2017-10-16T11:25:53.485Z,10.40
2017-10-16T11:28:21.694Z,9.70
2017-10-16T11:30:49.867Z,11.10
2017-10-16T11:33:18.041Z,9.40
2017-10-16T11:35:46.212Z,11.63
2017-10-16T11:38:15.139Z,11.40
2017-10-16T11:40:44.238Z,9.50
2017-10-16T11:43:12.413Z,9.47
2017-10-16T11:45:40.614Z,10.47
2017-10-16T11:48:08.890Z,10.40
2017-10-16T11:50:37.042Z,9.60
2017-10-16T11:53:05.283Z,10.23
2017-10-16T11:55:34.189Z,11.00
2017-10-16T11:58:02.390Z,9.90
2017-10-16T12:00:30.537Z,9.97
2017-10-16T12:02:58.713Z,9.60
2017-10-16T12:05:26.923Z,8.97
2017-10-16T12:07:55.087Z,9.90
2017-10-16T12:10:23.274Z,8.70
2017-10-16T12:12:51.478Z,10.13
2017-10-16T12:15:19.707Z,9.60
2017-10-16T12:17:47.979Z,9.47
2017-10-16T12:20:16.130Z,10.17
2017-10-16T12:22:44.627Z,8.80
2017-10-16T12:25:12.862Z,8.60
2017-10-16T12:27:41.038Z,8.87
2017-10-16T12:30:09.266Z,9.10
2017-10-16T12:32:37.487Z,9.10
2017-10-16T12:35:06.416Z,9.67
2017-10-16T12:37:34.586Z,10.80
2017-10-16T12:40:02.797Z,9.30
2017-10-16T12:42:31.066Z,9.57
2017-10-16T12:44:59.245Z,9.20
2017-10-16T12:47:27.454Z,11.00
2017-10-16T12:49:55.644Z,9.70
2017-10-16T12:52:23.884Z,9.23
2017-10-16T12:54:52.085Z,8.37
2017-10-16T12:57:20.987Z,9.50
2017-10-16T12:59:49.243Z,9.87
2017-10-16T13:02:17.501Z,9.53
2017-10-16T13:04:46.362Z,10.00
2017-10-16T13:07:14.650Z,8.67
2017-10-16T13:09:43.408Z,9.67
2017-10-16T13:12:12.010Z,8.20
2017-10-16T13:14:40.229Z,9.50
2017-10-16T13:17:08.506Z,10.00
2017-10-16T13:19:36.678Z,9.20
2017-10-16T13:22:04.923Z,8.60
2017-10-16T13:24:33.128Z,8.80
2017-10-16T13:27:02.070Z,8.80
2017-10-16T13:29:30.250Z,9.23
2017-10-16T13:31:58.430Z,10.00
2017-10-16T13:34:28.482Z,9.73
2017-10-16T13:36:58.150Z,10.00
2017-10-16T13:39:26.315Z,9.30
2017-10-16T13:41:54.819Z,10.20
2017-10-16T13:44:23.215Z,9.50
2017-10-16T13:46:51.421Z,8.50
2017-10-16T13:49:20.425Z,8.87
2017-10-16T13:51:48.642Z,7.13
2017-10-16T13:54:16.834Z,7.77
2017-10-16T13:56:45.022Z,8.40
2017-10-16T13:59:13.226Z,8.97
2017-10-16T14:01:46.089Z,9.00
2017-10-16T14:04:17.249Z,8.50
2017-10-16T14:06:47.161Z,8.87
2017-10-16T14:09:15.362Z,8.13
2017-10-16T14:11:43.545Z,8.17
2017-10-16T14:14:11.762Z,9.37
2017-10-16T14:16:39.944Z,10.00
2017-10-16T14:19:08.171Z,8.70
2017-10-16T14:21:36.341Z,8.57
2017-10-16T14:24:04.543Z,8.00
2017-10-16T14:26:32.902Z,8.00
2017-10-16T14:29:01.135Z,9.17
2017-10-16T14:31:30.087Z,8.17
2017-10-16T14:34:01.436Z,8.40
2017-10-16T14:36:29.618Z,8.50
2017-10-16T14:38:57.783Z,8.70
2017-10-16T14:41:25.954Z,8.20
2017-10-16T14:43:54.904Z,8.50
2017-10-16T14:46:23.942Z,8.13
2017-10-16T14:48:52.952Z,9.43
2017-10-16T14:51:21.229Z,10.20
2017-10-16T14:53:49.452Z,9.20
2017-10-16T14:56:17.670Z,8.60
2017-10-16T14:58:45.924Z,9.30
2017-10-16T15:01:14.260Z,7.57
2017-10-16T15:03:42.474Z,7.63
2017-10-16T15:06:10.723Z,7.60
2017-10-16T15:08:38.967Z,7.67
2017-10-16T15:11:07.198Z,8.17
2017-10-16T15:13:35.382Z,7.70
2017-10-16T15:16:03.607Z,8.90
2017-10-16T15:18:33.270Z,8.30
2017-10-16T15:21:01.471Z,8.10
2017-10-16T15:23:29.736Z,7.57
2017-10-16T15:25:58.110Z,8.33
2017-10-16T15:28:26.318Z,7.63
2017-10-16T15:30:54.894Z,7.97
2017-10-16T15:33:23.078Z,8.13
2017-10-16T15:35:51.226Z,7.80
2017-10-16T15:38:19.380Z,8.03
2017-10-16T15:40:47.550Z,9.10
2017-10-16T15:43:15.762Z,8.17
2017-10-16T15:45:43.963Z,9.23
2017-10-16T15:48:12.162Z,10.30
2017-10-16T15:50:40.337Z,9.70
2017-10-16T15:53:08.505Z,9.40
2017-10-16T15:55:36.698Z,9.40
2017-10-16T15:58:04.872Z,9.63
2017-10-16T16:00:33.117Z,10.87
2017-10-16T16:03:02.059Z,9.10
2017-10-16T16:05:30.213Z,9.93
2017-10-16T16:07:58.574Z,10.30
2017-10-16T16:10:26.853Z,9.67
2017-10-16T16:12:55.056Z,9.67
2017-10-16T16:15:23.297Z,9.93
2017-10-16T16:17:51.450Z,10.33
2017-10-16T16:20:19.585Z,10.80
2017-10-16T16:22:47.782Z,10.60
2017-10-16T16:25:16.014Z,11.03
2017-10-16T16:27:48.035Z,11.00
2017-10-16T16:30:16.577Z,11.03
2017-10-16T16:32:44.750Z,11.33
2017-10-16T16:35:12.923Z,12.13
2017-10-16T16:37:41.683Z,11.03
2017-10-16T16:40:09.894Z,11.17
2017-10-16T16:42:38.118Z,11.83
2017-10-16T16:45:07.027Z,11.73
2017-10-16T16:47:35.203Z,12.63
2017-10-16T16:50:03.586Z,12.40
2017-10-16T16:52:31.786Z,12.03
2017-10-16T16:54:59.959Z,11.57
2017-10-16T16:57:28.142Z,11.27
2017-10-16T16:59:56.266Z,11.37
2017-10-16T17:02:25.205Z,11.30
2017-10-16T17:04:53.371Z,11.17
2017-10-16T17:07:21.551Z,11.00
2017-10-16T17:09:49.720Z,11.70
2017-10-16T17:12:18.321Z,10.67
2017-10-16T17:14:46.486Z,10.67
2017-10-16T17:17:14.610Z,10.47
2017-10-16T17:19:43.514Z,12.20
2017-10-16T17:22:11.651Z,12.07
2017-10-16T17:24:39.834Z,11.40
2017-10-16T17:27:07.955Z,10.83
2017-10-16T17:29:36.102Z,10.97
2017-10-16T17:32:04.793Z,10.80
2017-10-16T17:34:32.929Z,11.53
2017-10-16T17:37:01.098Z,11.17
2017-10-16T17:39:29.215Z,13.57
2017-10-16T17:41:57.362Z,14.20
2017-10-16T17:44:25.515Z,13.60
2017-10-16T17:46:53.634Z,14.60
2017-10-16T17:49:21.745Z,13.50
2017-10-16T17:51:49.838Z,14.17
2017-10-16T17:54:17.977Z,14.00
2017-10-16T17:56:46.142Z,14.77
2017-10-16T17:59:14.302Z,12.80
2017-10-16T18:01:42.442Z,14.40
2017-10-16T18:04:10.587Z,14.37
2017-10-16T18:06:38.777Z,13.07
2017-10-16T18:09:06.895Z,12.77
2017-10-16T18:11:35.214Z,14.53
2017-10-16T18:14:03.393Z,14.47
2017-10-16T18:16:31.557Z,14.27
2017-10-16T18:18:59.678Z,13.70
2017-10-16T18:21:28.622Z,14.67
2017-10-16T18:23:57.047Z,14.30
2017-10-16T18:26:25.983Z,13.20
2017-10-16T18:28:54.326Z,15.13
2017-10-16T18:31:22.545Z,16.10
2017-10-16T18:33:50.974Z,15.67
2017-10-16T18:36:19.832Z,15.17
2017-10-16T18:38:47.934Z,16.40
2017-10-16T18:41:16.097Z,15.43
2017-10-16T18:43:44.251Z,15.13
2017-10-16T18:46:12.515Z,15.30
2017-10-16T18:48:40.703Z,15.80
2017-10-16T18:51:08.849Z,18.50
2017-10-16T18:53:37.059Z,16.63
2017-10-16T18:56:05.299Z,16.60
2017-10-16T18:58:33.517Z,16.03
2017-10-16T19:01:01.714Z,15.70
2017-10-16T19:03:29.840Z,14.43
2017-10-16T19:05:58.012Z,14.00
2017-10-16T19:08:26.220Z,14.30
2017-10-16T19:10:54.397Z,14.60
2017-10-16T19:13:22.575Z,15.77
2017-10-16T19:15:50.746Z,14.90
2017-10-16T19:18:20.412Z,14.23
2017-10-16T19:20:48.593Z,14.13
2017-10-16T19:23:16.784Z,15.00
2017-10-16T19:25:44.988Z,14.50
2017-10-16T19:28:13.991Z,14.87
2017-10-16T19:30:42.178Z,13.40
2017-10-16T19:33:11.087Z,13.73
2017-10-16T19:35:39.561Z,11.80
2017-10-16T19:38:07.824Z,12.83
2017-10-16T19:40:36.782Z,11.60
2017-10-16T19:43:04.986Z,11.47
2017-10-16T19:45:33.894Z,11.20
2017-10-16T19:48:02.092Z,10.70
2017-10-16T19:50:30.254Z,10.87
2017-10-16T19:52:58.496Z,10.40
2017-10-16T19:55:27.462Z,9.70
2017-10-16T19:57:55.633Z,9.93
2017-10-16T20:00:23.810Z,9.80
2017-10-16T20:02:52.232Z,9.27
2017-10-16T20:05:20.436Z,9.10
2017-10-16T20:07:48.641Z,8.40
2017-10-16T20:10:17.270Z,8.37
2017-10-16T20:12:45.650Z,8.70
2017-10-16T20:15:13.823Z,8.33
2017-10-16T20:17:42.049Z,9.43
2017-10-16T20:20:10.417Z,7.80
2017-10-16T20:22:38.606Z,8.80
2017-10-16T20:25:07.030Z,8.60
2017-10-16T20:27:35.231Z,9.33
2017-10-16T20:30:03.574Z,9.30
2017-10-16T20:32:31.814Z,7.97
2017-10-16T20:35:00.063Z,8.73
2017-10-16T20:37:28.566Z,8.50
2017-10-16T20:39:56.789Z,8.30
2017-10-16T20:42:25.774Z,7.70
2017-10-16T20:44:53.974Z,8.93
2017-10-16T20:47:22.461Z,9.77
2017-10-16T20:49:50.671Z,8.20
2017-10-16T20:52:18.986Z,9.20
2017-10-16T20:54:47.303Z,7.90
2017-10-16T20:57:15.500Z,7.90
2017-10-16T20:59:43.710Z,8.20
2017-10-16T21:02:11.994Z,7.87
2017-10-16T21:04:40.158Z,7.30
2017-10-16T21:07:09.155Z,7.70
2017-10-16T21:09:37.325Z,7.97
2017-10-16T21:12:05.503Z,8.50
2017-10-16T21:14:34.678Z,6.90
2017-10-16T21:17:02.974Z,8.47
2017-10-16T21:19:31.216Z,8.10
2017-10-16T21:21:59.532Z,7.40
2017-10-16T21:24:28.426Z,7.70
2017-10-16T21:26:57.350Z,7.70
2017-10-16T21:29:25.582Z,9.20
2017-10-16T21:31:54.534Z,8.30
2017-10-16T21:34:22.752Z,7.67
2017-10-16T21:36:50.984Z,9.87
2017-10-16T21:39:19.466Z,7.17
2017-10-16T21:41:47.778Z,8.50
2017-10-16T21:44:16.268Z,9.57
2017-10-16T21:46:44.450Z,8.40
2017-10-16T21:49:13.396Z,9.20
2017-10-16T21:51:41.682Z,9.53
2017-10-16T21:54:09.838Z,8.60
2017-10-16T21:56:38.059Z,9.50
2017-10-16T21:59:06.327Z,10.33
2017-10-16T22:01:34.483Z,9.13
2017-10-16T22:04:02.687Z,9.33
2017-10-16T22:06:30.859Z,9.27
2017-10-16T22:08:59.088Z,9.40
2017-10-16T22:11:27.266Z,10.20
2017-10-16T22:16:55.863Z,9.20
2017-10-16T22:19:24.085Z,8.50
2017-10-16T22:21:52.407Z,8.63
2017-10-16T22:24:20.591Z,8.30
2017-10-16T22:26:48.783Z,9.20
2017-10-16T22:29:16.941Z,8.63
2017-10-16T22:31:45.158Z,8.30
2017-10-16T22:34:13.326Z,9.30
2017-10-16T22:36:41.490Z,8.20
2017-10-16T22:39:09.939Z,9.37
2017-10-16T22:41:38.680Z,8.43
2017-10-16T22:44:07.634Z,8.87
2017-10-16T22:46:35.810Z,8.67
2017-10-16T22:49:04.023Z,8.13
2017-10-16T22:51:32.262Z,8.43
2017-10-16T22:54:02.776Z,8.93
2017-10-16T22:56:30.993Z,10.20
2017-10-16T22:58:59.159Z,7.53
2017-10-16T23:01:27.311Z,8.47
2017-10-16T23:03:55.458Z,8.20
2017-10-16T23:06:23.934Z,8.80
2017-10-16T23:08:52.112Z,8.50
2017-10-16T23:11:20.258Z,9.57
2017-10-16T23:13:48.418Z,8.97
2017-10-16T23:16:16.582Z,8.20
2017-10-16T23:18:44.754Z,8.77
2017-10-16T23:21:12.930Z,8.77
2017-10-16T23:23:41.128Z,9.37
2017-10-16T23:26:10.050Z,9.57
2017-10-16T23:28:38.214Z,8.80
2017-10-16T23:31:06.374Z,8.73
2017-10-16T23:33:35.314Z,8.50
2017-10-16T23:36:03.631Z,8.93
2017-10-16T23:38:31.834Z,9.40
2017-10-16T23:41:00.065Z,8.70
2017-10-16T23:43:28.442Z,8.50
2017-10-16T23:45:56.718Z,8.20
2017-10-16T23:48:24.937Z,8.53
2017-10-16T23:50:53.130Z,9.00
2017-10-16T23:53:21.342Z,8.17
2017-10-16T23:55:49.528Z,7.30
2017-10-16T23:58:17.686Z,7.93
